Terminal Aerodrome Forecast
Issued by NWS Birmingham, AL

Home | Current Version | Previous Version | Text Only | Print | Product List | Glossary On
Versions: 1 2 3 4 5 6 7 8 9 10 11 12 13
248
FTUS44 KBMX 010520
TAFBHM
TAF
KBHM 010520Z 0106/0206 04003KT P6SM SCT070
     FM011600 03010KT P6SM SCT060 BKN200 PROB30 0119/0123 4SM -TSRA
      BKN050CB=

USA.gov is the U.S. government's official web portal to all federal, state and local government web resources and services.